sensor_id;sensor_type;location;lat;lon;timestamp;pressure;altitude;pressure_sealevel;temperature
20289;BMP180;10303;51.960;8.372;2024-01-30T00:02:15;101666.00;;;8.60
20289;BMP180;10303;51.960;8.372;2024-01-30T00:04:40;101666.00;;;8.60
20289;BMP180;10303;51.960;8.372;2024-01-30T00:07:06;101665.00;;;8.50
20289;BMP180;10303;51.960;8.372;2024-01-30T00:09:33;101664.00;;;8.50
20289;BMP180;10303;51.960;8.372;2024-01-30T00:11:59;101665.00;;;8.50
20289;BMP180;10303;51.960;8.372;2024-01-30T00:14:25;101655.00;;;8.40
20289;BMP180;10303;51.960;8.372;2024-01-30T00:16:51;101667.00;;;8.40
20289;BMP180;10303;51.960;8.372;2024-01-30T00:19:17;101665.00;;;8.40
20289;BMP180;10303;51.960;8.372;2024-01-30T00:21:43;101661.00;;;8.40
20289;BMP180;10303;51.960;8.372;2024-01-30T00:24:09;101668.00;;;8.40
20289;BMP180;10303;51.960;8.372;2024-01-30T00:26:35;101672.00;;;8.40
20289;BMP180;10303;51.960;8.372;2024-01-30T00:29:01;101662.00;;;8.40
20289;BMP180;10303;51.960;8.372;2024-01-30T00:31:27;101648.00;;;8.30
20289;BMP180;10303;51.960;8.372;2024-01-30T00:33:53;101667.00;;;8.30
20289;BMP180;10303;51.960;8.372;2024-01-30T00:36:19;101660.00;;;8.30
20289;BMP180;10303;51.960;8.372;2024-01-30T00:38:45;101672.00;;;8.30
20289;BMP180;10303;51.960;8.372;2024-01-30T00:41:11;101658.00;;;8.30
20289;BMP180;10303;51.960;8.372;2024-01-30T00:43:37;101663.00;;;8.30
20289;BMP180;10303;51.960;8.372;2024-01-30T00:46:03;101665.00;;;8.20
20289;BMP180;10303;51.960;8.372;2024-01-30T00:48:29;101658.00;;;8.20
20289;BMP180;10303;51.960;8.372;2024-01-30T00:50:55;101661.00;;;8.20
20289;BMP180;10303;51.960;8.372;2024-01-30T00:53:21;101658.00;;;8.20
20289;BMP180;10303;51.960;8.372;2024-01-30T00:55:47;101660.00;;;8.20
20289;BMP180;10303;51.960;8.372;2024-01-30T00:58:13;101648.00;;;8.20
20289;BMP180;10303;51.960;8.372;2024-01-30T01:00:39;101667.00;;;8.20
20289;BMP180;10303;51.960;8.372;2024-01-30T01:03:06;101654.00;;;8.20
20289;BMP180;10303;51.960;8.372;2024-01-30T01:05:31;101656.00;;;8.20
20289;BMP180;10303;51.960;8.372;2024-01-30T01:07:57;101652.00;;;8.20
20289;BMP180;10303;51.960;8.372;2024-01-30T01:10:23;101648.00;;;8.20
20289;BMP180;10303;51.960;8.372;2024-01-30T01:12:49;101645.00;;;8.20
20289;BMP180;10303;51.960;8.372;2024-01-30T01:15:15;101654.00;;;8.20
20289;BMP180;10303;51.960;8.372;2024-01-30T01:17:41;101646.00;;;8.20
20289;BMP180;10303;51.960;8.372;2024-01-30T01:20:08;101645.00;;;8.20
20289;BMP180;10303;51.960;8.372;2024-01-30T01:22:37;101635.00;;;8.20
20289;BMP180;10303;51.960;8.372;2024-01-30T01:25:05;101643.00;;;8.20
20289;BMP180;10303;51.960;8.372;2024-01-30T01:27:34;101644.00;;;8.20
20289;BMP180;10303;51.960;8.372;2024-01-30T01:30:04;101642.00;;;8.20
20289;BMP180;10303;51.960;8.372;2024-01-30T01:32:31;101638.00;;;8.20
20289;BMP180;10303;51.960;8.372;2024-01-30T01:34:57;101642.00;;;8.20
20289;BMP180;10303;51.960;8.372;2024-01-30T01:37:23;101637.00;;;8.10
20289;BMP180;10303;51.960;8.372;2024-01-30T01:39:52;101635.00;;;8.20
20289;BMP180;10303;51.960;8.372;2024-01-30T01:42:18;101629.00;;;8.20
20289;BMP180;10303;51.960;8.372;2024-01-30T01:44:44;101637.00;;;8.20
20289;BMP180;10303;51.960;8.372;2024-01-30T01:47:10;101626.00;;;8.20
20289;BMP180;10303;51.960;8.372;2024-01-30T01:49:37;101632.00;;;8.20
20289;BMP180;10303;51.960;8.372;2024-01-30T01:52:04;101633.00;;;8.30
20289;BMP180;10303;51.960;8.372;2024-01-30T01:54:30;101636.00;;;8.30
20289;BMP180;10303;51.960;8.372;2024-01-30T01:56:56;101619.00;;;8.30
20289;BMP180;10303;51.960;8.372;2024-01-30T01:59:23;101628.00;;;8.30
20289;BMP180;10303;51.960;8.372;2024-01-30T02:01:52;101628.00;;;8.30
20289;BMP180;10303;51.960;8.372;2024-01-30T02:04:18;101625.00;;;8.30
20289;BMP180;10303;51.960;8.372;2024-01-30T02:06:44;101625.00;;;8.30
20289;BMP180;10303;51.960;8.372;2024-01-30T02:09:10;101630.00;;;8.30
20289;BMP180;10303;51.960;8.372;2024-01-30T02:11:36;101599.00;;;8.30
20289;BMP180;10303;51.960;8.372;2024-01-30T02:14:05;101619.00;;;8.30
20289;BMP180;10303;51.960;8.372;2024-01-30T02:16:34;101609.00;;;8.30
20289;BMP180;10303;51.960;8.372;2024-01-30T02:19:00;101604.00;;;8.30
20289;BMP180;10303;51.960;8.372;2024-01-30T02:21:26;101607.00;;;8.30
20289;BMP180;10303;51.960;8.372;2024-01-30T02:23:54;101613.00;;;8.30
20289;BMP180;10303;51.960;8.372;2024-01-30T02:26:20;101606.00;;;8.30
20289;BMP180;10303;51.960;8.372;2024-01-30T02:28:46;101613.00;;;8.30
20289;BMP180;10303;51.960;8.372;2024-01-30T02:31:12;101602.00;;;8.20
20289;BMP180;10303;51.960;8.372;2024-01-30T02:33:38;101603.00;;;8.30
20289;BMP180;10303;51.960;8.372;2024-01-30T02:36:04;101598.00;;;8.20
20289;BMP180;10303;51.960;8.372;2024-01-30T02:38:30;101593.00;;;8.20
20289;BMP180;10303;51.960;8.372;2024-01-30T02:40:56;101591.00;;;8.20
20289;BMP180;10303;51.960;8.372;2024-01-30T02:43:22;101599.00;;;8.20
20289;BMP180;10303;51.960;8.372;2024-01-30T02:45:48;101600.00;;;8.20
20289;BMP180;10303;51.960;8.372;2024-01-30T02:48:14;101596.00;;;8.10
20289;BMP180;10303;51.960;8.372;2024-01-30T02:50:40;101592.00;;;8.20
20289;BMP180;10303;51.960;8.372;2024-01-30T02:53:06;101581.00;;;8.10
20289;BMP180;10303;51.960;8.372;2024-01-30T02:55:33;101585.00;;;8.10
20289;BMP180;10303;51.960;8.372;2024-01-30T02:57:59;101586.00;;;8.10
20289;BMP180;10303;51.960;8.372;2024-01-30T03:00:25;101577.00;;;8.10
20289;BMP180;10303;51.960;8.372;2024-01-30T03:02:51;101573.00;;;8.10
20289;BMP180;10303;51.960;8.372;2024-01-30T03:05:16;101563.00;;;8.10
20289;BMP180;10303;51.960;8.372;2024-01-30T03:07:42;101559.00;;;8.10
20289;BMP180;10303;51.960;8.372;2024-01-30T03:10:08;101568.00;;;8.10
20289;BMP180;10303;51.960;8.372;2024-01-30T03:12:34;101568.00;;;8.10
20289;BMP180;10303;51.960;8.372;2024-01-30T03:15:00;101570.00;;;8.10
20289;BMP180;10303;51.960;8.372;2024-01-30T03:17:26;101568.00;;;8.10
20289;BMP180;10303;51.960;8.372;2024-01-30T03:19:52;101552.00;;;8.10
20289;BMP180;10303;51.960;8.372;2024-01-30T03:22:18;101559.00;;;8.10
20289;BMP180;10303;51.960;8.372;2024-01-30T03:24:43;101565.00;;;8.10
20289;BMP180;10303;51.960;8.372;2024-01-30T03:27:09;101555.00;;;8.10
20289;BMP180;10303;51.960;8.372;2024-01-30T03:29:35;101554.00;;;8.10
20289;BMP180;10303;51.960;8.372;2024-01-30T03:32:01;101555.00;;;8.10
20289;BMP180;10303;51.960;8.372;2024-01-30T03:34:29;101545.00;;;8.20
20289;BMP180;10303;51.960;8.372;2024-01-30T03:36:55;101552.00;;;8.20
20289;BMP180;10303;51.960;8.372;2024-01-30T03:39:21;101549.00;;;8.20
20289;BMP180;10303;51.960;8.372;2024-01-30T03:41:47;101542.00;;;8.20
20289;BMP180;10303;51.960;8.372;2024-01-30T03:44:13;101537.00;;;8.20
20289;BMP180;10303;51.960;8.372;2024-01-30T03:46:39;101544.00;;;8.20
20289;BMP180;10303;51.960;8.372;2024-01-30T03:49:04;101540.00;;;8.20
20289;BMP180;10303;51.960;8.372;2024-01-30T03:51:30;101537.00;;;8.20
20289;BMP180;10303;51.960;8.372;2024-01-30T03:53:56;101534.00;;;8.20
20289;BMP180;10303;51.960;8.372;2024-01-30T03:56:22;101531.00;;;8.20
20289;BMP180;10303;51.960;8.372;2024-01-30T03:58:48;101535.00;;;8.20
20289;BMP180;10303;51.960;8.372;2024-01-30T04:01:14;101527.00;;;8.20
20289;BMP180;10303;51.960;8.372;2024-01-30T04:03:41;101532.00;;;8.20
20289;BMP180;10303;51.960;8.372;2024-01-30T04:06:08;101526.00;;;8.20
20289;BMP180;10303;51.960;8.372;2024-01-30T04:08:34;101529.00;;;8.20
20289;BMP180;10303;51.960;8.372;2024-01-30T04:11:04;101521.00;;;8.20
20289;BMP180;10303;51.960;8.372;2024-01-30T04:13:32;101527.00;;;8.30
20289;BMP180;10303;51.960;8.372;2024-01-30T04:16:02;101529.00;;;8.20
20289;BMP180;10303;51.960;8.372;2024-01-30T04:18:29;101526.00;;;8.30
20289;BMP180;10303;51.960;8.372;2024-01-30T04:20:55;101522.00;;;8.30
20289;BMP180;10303;51.960;8.372;2024-01-30T04:23:21;101515.00;;;8.30
20289;BMP180;10303;51.960;8.372;2024-01-30T04:25:47;101514.00;;;8.30
20289;BMP180;10303;51.960;8.372;2024-01-30T04:28:13;101518.00;;;8.20
20289;BMP180;10303;51.960;8.372;2024-01-30T04:30:39;101519.00;;;8.30
20289;BMP180;10303;51.960;8.372;2024-01-30T04:33:05;101513.00;;;8.20
20289;BMP180;10303;51.960;8.372;2024-01-30T04:35:31;101520.00;;;8.20
20289;BMP180;10303;51.960;8.372;2024-01-30T04:37:57;101515.00;;;8.20
20289;BMP180;10303;51.960;8.372;2024-01-30T04:40:23;101522.00;;;8.30
20289;BMP180;10303;51.960;8.372;2024-01-30T04:42:49;101519.00;;;8.30
20289;BMP180;10303;51.960;8.372;2024-01-30T04:45:15;101524.00;;;8.20
20289;BMP180;10303;51.960;8.372;2024-01-30T04:47:41;101523.00;;;8.20
20289;BMP180;10303;51.960;8.372;2024-01-30T04:50:07;101524.00;;;8.20
20289;BMP180;10303;51.960;8.372;2024-01-30T04:52:35;101517.00;;;8.20
20289;BMP180;10303;51.960;8.372;2024-01-30T04:55:01;101523.00;;;8.20
20289;BMP180;10303;51.960;8.372;2024-01-30T04:57:27;101515.00;;;8.20
20289;BMP180;10303;51.960;8.372;2024-01-30T04:59:53;101519.00;;;8.20
20289;BMP180;10303;51.960;8.372;2024-01-30T05:02:19;101523.00;;;8.20
20289;BMP180;10303;51.960;8.372;2024-01-30T05:04:45;101513.00;;;8.30
20289;BMP180;10303;51.960;8.372;2024-01-30T05:07:11;101508.00;;;8.20
20289;BMP180;10303;51.960;8.372;2024-01-30T05:09:37;101518.00;;;8.20
20289;BMP180;10303;51.960;8.372;2024-01-30T05:12:03;101508.00;;;8.20
20289;BMP180;10303;51.960;8.372;2024-01-30T05:14:29;101504.00;;;8.20
20289;BMP180;10303;51.960;8.372;2024-01-30T05:16:55;101505.00;;;8.20
20289;BMP180;10303;51.960;8.372;2024-01-30T05:19:21;101511.00;;;8.20
20289;BMP180;10303;51.960;8.372;2024-01-30T05:21:49;101514.00;;;8.30
20289;BMP180;10303;51.960;8.372;2024-01-30T05:24:16;101505.00;;;8.30
20289;BMP180;10303;51.960;8.372;2024-01-30T05:26:41;101504.00;;;8.30
20289;BMP180;10303;51.960;8.372;2024-01-30T05:29:08;101512.00;;;8.30
20289;BMP180;10303;51.960;8.372;2024-01-30T05:31:34;101512.00;;;8.30
20289;BMP180;10303;51.960;8.372;2024-01-30T05:34:00;101513.00;;;8.30
20289;BMP180;10303;51.960;8.372;2024-01-30T05:36:27;101507.00;;;8.30
20289;BMP180;10303;51.960;8.372;2024-01-30T05:38:52;101505.00;;;8.40
20289;BMP180;10303;51.960;8.372;2024-01-30T05:41:19;101508.00;;;8.40
20289;BMP180;10303;51.960;8.372;2024-01-30T05:43:45;101510.00;;;8.40
20289;BMP180;10303;51.960;8.372;2024-01-30T05:46:11;101502.00;;;8.40
20289;BMP180;10303;51.960;8.372;2024-01-30T05:48:37;101497.00;;;8.40
20289;BMP180;10303;51.960;8.372;2024-01-30T05:51:03;101501.00;;;8.40
20289;BMP180;10303;51.960;8.372;2024-01-30T05:53:30;101498.00;;;8.40
20289;BMP180;10303;51.960;8.372;2024-01-30T05:55:55;101490.00;;;8.40
20289;BMP180;10303;51.960;8.372;2024-01-30T05:58:21;101496.00;;;8.40
20289;BMP180;10303;51.960;8.372;2024-01-30T06:00:47;101493.00;;;8.40
20289;BMP180;10303;51.960;8.372;2024-01-30T06:03:13;101492.00;;;8.40
20289;BMP180;10303;51.960;8.372;2024-01-30T06:05:39;101496.00;;;8.40
20289;BMP180;10303;51.960;8.372;2024-01-30T06:08:05;101501.00;;;8.40
20289;BMP180;10303;51.960;8.372;2024-01-30T06:10:31;101502.00;;;8.40
20289;BMP180;10303;51.960;8.372;2024-01-30T06:12:57;101497.00;;;8.40
20289;BMP180;10303;51.960;8.372;2024-01-30T06:15:23;101494.00;;;8.40
20289;BMP180;10303;51.960;8.372;2024-01-30T06:17:49;101498.00;;;8.40
20289;BMP180;10303;51.960;8.372;2024-01-30T06:20:15;101497.00;;;8.40
20289;BMP180;10303;51.960;8.372;2024-01-30T06:22:41;101495.00;;;8.40
20289;BMP180;10303;51.960;8.372;2024-01-30T06:25:07;101489.00;;;8.40
20289;BMP180;10303;51.960;8.372;2024-01-30T06:27:33;101500.00;;;8.40
20289;BMP180;10303;51.960;8.372;2024-01-30T06:29:59;101501.00;;;8.40
20289;BMP180;10303;51.960;8.372;2024-01-30T06:32:25;101490.00;;;8.50
20289;BMP180;10303;51.960;8.372;2024-01-30T06:34:50;101492.00;;;8.50
20289;BMP180;10303;51.960;8.372;2024-01-30T06:37:16;101498.00;;;8.40
20289;BMP180;10303;51.960;8.372;2024-01-30T06:39:42;101495.00;;;8.40
20289;BMP180;10303;51.960;8.372;2024-01-30T06:42:08;101489.00;;;8.40
20289;BMP180;10303;51.960;8.372;2024-01-30T06:44:34;101490.00;;;8.40
20289;BMP180;10303;51.960;8.372;2024-01-30T06:47:00;101489.00;;;8.40
20289;BMP180;10303;51.960;8.372;2024-01-30T06:49:26;101494.00;;;8.40
20289;BMP180;10303;51.960;8.372;2024-01-30T06:51:52;101493.00;;;8.40
20289;BMP180;10303;51.960;8.372;2024-01-30T06:54:18;101495.00;;;8.40
20289;BMP180;10303;51.960;8.372;2024-01-30T06:56:43;101492.00;;;8.40
20289;BMP180;10303;51.960;8.372;2024-01-30T06:59:09;101494.00;;;8.40
20289;BMP180;10303;51.960;8.372;2024-01-30T07:01:35;101490.00;;;8.40
20289;BMP180;10303;51.960;8.372;2024-01-30T07:04:01;101496.00;;;8.40
20289;BMP180;10303;51.960;8.372;2024-01-30T07:06:27;101491.00;;;8.40
20289;BMP180;10303;51.960;8.372;2024-01-30T07:08:53;101494.00;;;8.40
20289;BMP180;10303;51.960;8.372;2024-01-30T07:11:22;101493.00;;;8.40
20289;BMP180;10303;51.960;8.372;2024-01-30T07:13:51;101496.00;;;8.40
20289;BMP180;10303;51.960;8.372;2024-01-30T07:16:17;101501.00;;;8.40
20289;BMP180;10303;51.960;8.372;2024-01-30T07:18:44;101497.00;;;8.40
20289;BMP180;10303;51.960;8.372;2024-01-30T07:21:11;101497.00;;;8.40
20289;BMP180;10303;51.960;8.372;2024-01-30T07:23:37;101494.00;;;8.40
20289;BMP180;10303;51.960;8.372;2024-01-30T07:26:08;101503.00;;;8.40
20289;BMP180;10303;51.960;8.372;2024-01-30T07:28:34;101508.00;;;8.40
20289;BMP180;10303;51.960;8.372;2024-01-30T07:31:01;101503.00;;;8.40
20289;BMP180;10303;51.960;8.372;2024-01-30T07:33:27;101498.00;;;8.40
20289;BMP180;10303;51.960;8.372;2024-01-30T07:35:53;101500.00;;;8.40
20289;BMP180;10303;51.960;8.372;2024-01-30T07:38:19;101494.00;;;8.40
20289;BMP180;10303;51.960;8.372;2024-01-30T07:40:45;101494.00;;;8.40
20289;BMP180;10303;51.960;8.372;2024-01-30T07:43:12;101494.00;;;8.40
20289;BMP180;10303;51.960;8.372;2024-01-30T07:45:38;101505.00;;;8.40
20289;BMP180;10303;51.960;8.372;2024-01-30T07:48:05;101500.00;;;8.40
20289;BMP180;10303;51.960;8.372;2024-01-30T07:50:31;101500.00;;;8.40
20289;BMP180;10303;51.960;8.372;2024-01-30T07:53:00;101505.00;;;8.40
20289;BMP180;10303;51.960;8.372;2024-01-30T07:55:26;101510.00;;;8.50
20289;BMP180;10303;51.960;8.372;2024-01-30T07:57:56;101516.00;;;8.50
20289;BMP180;10303;51.960;8.372;2024-01-30T08:00:22;101507.00;;;8.50
20289;BMP180;10303;51.960;8.372;2024-01-30T08:02:48;101503.00;;;8.50
20289;BMP180;10303;51.960;8.372;2024-01-30T08:05:14;101498.00;;;8.60
20289;BMP180;10303;51.960;8.372;2024-01-30T08:07:44;101501.00;;;8.60
20289;BMP180;10303;51.960;8.372;2024-01-30T08:10:12;101493.00;;;8.60
20289;BMP180;10303;51.960;8.372;2024-01-30T08:12:38;101495.00;;;8.70
20289;BMP180;10303;51.960;8.372;2024-01-30T08:15:05;101497.00;;;8.70
20289;BMP180;10303;51.960;8.372;2024-01-30T08:17:31;101494.00;;;8.70
20289;BMP180;10303;51.960;8.372;2024-01-30T08:19:57;101497.00;;;8.80
20289;BMP180;10303;51.960;8.372;2024-01-30T08:22:23;101500.00;;;8.80
20289;BMP180;10303;51.960;8.372;2024-01-30T08:24:49;101496.00;;;8.90
20289;BMP180;10303;51.960;8.372;2024-01-30T08:27:15;101495.00;;;8.90
20289;BMP180;10303;51.960;8.372;2024-01-30T08:29:41;101511.00;;;9.00
20289;BMP180;10303;51.960;8.372;2024-01-30T08:32:07;101521.00;;;9.10
20289;BMP180;10303;51.960;8.372;2024-01-30T08:34:33;101515.00;;;9.10
20289;BMP180;10303;51.960;8.372;2024-01-30T08:36:59;101514.00;;;9.10
20289;BMP180;10303;51.960;8.372;2024-01-30T08:39:25;101522.00;;;9.20
20289;BMP180;10303;51.960;8.372;2024-01-30T08:41:51;101526.00;;;9.30
20289;BMP180;10303;51.960;8.372;2024-01-30T08:44:17;101524.00;;;9.30
20289;BMP180;10303;51.960;8.372;2024-01-30T08:46:46;101518.00;;;9.40
20289;BMP180;10303;51.960;8.372;2024-01-30T08:49:13;101513.00;;;9.40
20289;BMP180;10303;51.960;8.372;2024-01-30T08:51:39;101513.00;;;9.50
20289;BMP180;10303;51.960;8.372;2024-01-30T08:54:05;101516.00;;;9.60
20289;BMP180;10303;51.960;8.372;2024-01-30T08:56:31;101514.00;;;9.70
20289;BMP180;10303;51.960;8.372;2024-01-30T08:58:57;101504.00;;;9.80
20289;BMP180;10303;51.960;8.372;2024-01-30T09:01:23;101515.00;;;9.80
20289;BMP180;10303;51.960;8.372;2024-01-30T09:03:49;101519.00;;;10.00
20289;BMP180;10303;51.960;8.372;2024-01-30T09:06:15;101515.00;;;10.10
20289;BMP180;10303;51.960;8.372;2024-01-30T09:08:41;101518.00;;;10.20
20289;BMP180;10303;51.960;8.372;2024-01-30T09:11:12;101518.00;;;10.40
20289;BMP180;10303;51.960;8.372;2024-01-30T09:13:39;101523.00;;;10.50
20289;BMP180;10303;51.960;8.372;2024-01-30T09:16:06;101524.00;;;10.70
20289;BMP180;10303;51.960;8.372;2024-01-30T09:18:32;101516.00;;;10.80
20289;BMP180;10303;51.960;8.372;2024-01-30T09:20:58;101524.00;;;11.00
20289;BMP180;10303;51.960;8.372;2024-01-30T09:23:26;101534.00;;;11.10
20289;BMP180;10303;51.960;8.372;2024-01-30T09:25:52;101521.00;;;11.30
20289;BMP180;10303;51.960;8.372;2024-01-30T09:28:18;101527.00;;;11.50
20289;BMP180;10303;51.960;8.372;2024-01-30T09:30:44;101532.00;;;11.60
20289;BMP180;10303;51.960;8.372;2024-01-30T09:33:10;101529.00;;;11.80
20289;BMP180;10303;51.960;8.372;2024-01-30T09:35:36;101535.00;;;11.90
20289;BMP180;10303;51.960;8.372;2024-01-30T09:38:03;101525.00;;;12.00
20289;BMP180;10303;51.960;8.372;2024-01-30T09:40:29;101535.00;;;12.10
20289;BMP180;10303;51.960;8.372;2024-01-30T09:42:55;101538.00;;;12.20
20289;BMP180;10303;51.960;8.372;2024-01-30T09:45:26;101530.00;;;12.30
20289;BMP180;10303;51.960;8.372;2024-01-30T09:47:52;101526.00;;;12.40
20289;BMP180;10303;51.960;8.372;2024-01-30T09:50:19;101523.00;;;12.40
20289;BMP180;10303;51.960;8.372;2024-01-30T09:52:46;101524.00;;;12.50
20289;BMP180;10303;51.960;8.372;2024-01-30T09:55:13;101530.00;;;12.60
20289;BMP180;10303;51.960;8.372;2024-01-30T09:57:41;101533.00;;;12.60
20289;BMP180;10303;51.960;8.372;2024-01-30T10:00:07;101526.00;;;12.70
20289;BMP180;10303;51.960;8.372;2024-01-30T10:02:40;101531.00;;;12.70
20289;BMP180;10303;51.960;8.372;2024-01-30T10:05:08;101529.00;;;12.80
20289;BMP180;10303;51.960;8.372;2024-01-30T10:07:33;101529.00;;;12.90
20289;BMP180;10303;51.960;8.372;2024-01-30T10:10:00;101529.00;;;13.00
20289;BMP180;10303;51.960;8.372;2024-01-30T10:12:27;101528.00;;;13.10
20289;BMP180;10303;51.960;8.372;2024-01-30T10:14:52;101540.00;;;13.20
20289;BMP180;10303;51.960;8.372;2024-01-30T10:17:19;101541.00;;;13.30
20289;BMP180;10303;51.960;8.372;2024-01-30T10:19:47;101542.00;;;13.40
20289;BMP180;10303;51.960;8.372;2024-01-30T10:22:13;101545.00;;;13.50
20289;BMP180;10303;51.960;8.372;2024-01-30T10:24:39;101542.00;;;13.60
20289;BMP180;10303;51.960;8.372;2024-01-30T10:27:08;101551.00;;;13.70
20289;BMP180;10303;51.960;8.372;2024-01-30T10:29:34;101543.00;;;13.80
20289;BMP180;10303;51.960;8.372;2024-01-30T10:32:02;101555.00;;;13.90
20289;BMP180;10303;51.960;8.372;2024-01-30T10:34:29;101550.00;;;14.10
20289;BMP180;10303;51.960;8.372;2024-01-30T10:37:09;101543.00;;;14.20
20289;BMP180;10303;51.960;8.372;2024-01-30T10:39:39;101538.00;;;14.40
20289;BMP180;10303;51.960;8.372;2024-01-30T10:42:07;101545.00;;;14.50
20289;BMP180;10303;51.960;8.372;2024-01-30T10:47:55;101540.00;;;14.60
20289;BMP180;10303;51.960;8.372;2024-01-30T10:50:24;101530.00;;;14.70
20289;BMP180;10303;51.960;8.372;2024-01-30T10:52:52;101526.00;;;14.80
20289;BMP180;10303;51.960;8.372;2024-01-30T10:55:18;101516.00;;;14.90
20289;BMP180;10303;51.960;8.372;2024-01-30T10:57:44;101523.00;;;14.90
20289;BMP180;10303;51.960;8.372;2024-01-30T11:00:14;101527.00;;;14.90
20289;BMP180;10303;51.960;8.372;2024-01-30T11:02:46;101523.00;;;15.00
20289;BMP180;10303;51.960;8.372;2024-01-30T11:05:13;101520.00;;;15.10
20289;BMP180;10303;51.960;8.372;2024-01-30T11:07:41;101516.00;;;15.10
20289;BMP180;10303;51.960;8.372;2024-01-30T11:10:07;101521.00;;;15.10
20289;BMP180;10303;51.960;8.372;2024-01-30T11:12:41;101522.00;;;15.10
20289;BMP180;10303;51.960;8.372;2024-01-30T11:15:11;101527.00;;;15.20
20289;BMP180;10303;51.960;8.372;2024-01-30T11:20:22;101526.00;;;15.20
20289;BMP180;10303;51.960;8.372;2024-01-30T11:22:51;101523.00;;;15.20
20289;BMP180;10303;51.960;8.372;2024-01-30T11:25:21;101525.00;;;15.20
20289;BMP180;10303;51.960;8.372;2024-01-30T11:27:52;101524.00;;;15.30
20289;BMP180;10303;51.960;8.372;2024-01-30T11:35:41;101535.00;;;15.50
20289;BMP180;10303;51.960;8.372;2024-01-30T11:38:10;101533.00;;;15.60
20289;BMP180;10303;51.960;8.372;2024-01-30T11:40:40;101524.00;;;15.60
20289;BMP180;10303;51.960;8.372;2024-01-30T11:43:08;101524.00;;;15.70
20289;BMP180;10303;51.960;8.372;2024-01-30T11:45:35;101525.00;;;15.80
20289;BMP180;10303;51.960;8.372;2024-01-30T11:48:03;101521.00;;;15.80
20289;BMP180;10303;51.960;8.372;2024-01-30T11:50:33;101516.00;;;15.80
20289;BMP180;10303;51.960;8.372;2024-01-30T11:53:00;101524.00;;;15.80
20289;BMP180;10303;51.960;8.372;2024-01-30T11:55:26;101525.00;;;15.90
20289;BMP180;10303;51.960;8.372;2024-01-30T11:57:57;101525.00;;;15.90
20289;BMP180;10303;51.960;8.372;2024-01-30T12:00:24;101522.00;;;15.90
20289;BMP180;10303;51.960;8.372;2024-01-30T12:02:55;101522.00;;;15.90
20289;BMP180;10303;51.960;8.372;2024-01-30T12:05:27;101522.00;;;15.90
20289;BMP180;10303;51.960;8.372;2024-01-30T12:07:53;101520.00;;;16.00
20289;BMP180;10303;51.960;8.372;2024-01-30T12:10:19;101516.00;;;16.00
20289;BMP180;10303;51.960;8.372;2024-01-30T12:12:52;101516.00;;;16.00
20289;BMP180;10303;51.960;8.372;2024-01-30T12:15:22;101525.00;;;16.00
20289;BMP180;10303;51.960;8.372;2024-01-30T12:17:48;101515.00;;;16.10
20289;BMP180;10303;51.960;8.372;2024-01-30T12:20:18;101519.00;;;16.10
20289;BMP180;10303;51.960;8.372;2024-01-30T12:22:46;101517.00;;;16.10
20289;BMP180;10303;51.960;8.372;2024-01-30T12:25:15;101525.00;;;16.10
20289;BMP180;10303;51.960;8.372;2024-01-30T12:27:46;101522.00;;;16.10
20289;BMP180;10303;51.960;8.372;2024-01-30T12:30:17;101515.00;;;16.20
20289;BMP180;10303;51.960;8.372;2024-01-30T12:32:45;101527.00;;;16.20
20289;BMP180;10303;51.960;8.372;2024-01-30T12:35:16;101529.00;;;16.30
20289;BMP180;10303;51.960;8.372;2024-01-30T12:37:47;101535.00;;;16.30
20289;BMP180;10303;51.960;8.372;2024-01-30T12:40:15;101536.00;;;16.40
20289;BMP180;10303;51.960;8.372;2024-01-30T12:42:41;101534.00;;;16.40
20289;BMP180;10303;51.960;8.372;2024-01-30T12:45:09;101532.00;;;16.40
20289;BMP180;10303;51.960;8.372;2024-01-30T12:47:35;101529.00;;;16.40
20289;BMP180;10303;51.960;8.372;2024-01-30T12:50:01;101538.00;;;16.40
20289;BMP180;10303;51.960;8.372;2024-01-30T12:52:29;101538.00;;;16.40
20289;BMP180;10303;51.960;8.372;2024-01-30T12:54:55;101536.00;;;16.40
20289;BMP180;10303;51.960;8.372;2024-01-30T12:57:21;101531.00;;;16.40
20289;BMP180;10303;51.960;8.372;2024-01-30T12:59:47;101525.00;;;16.40
20289;BMP180;10303;51.960;8.372;2024-01-30T13:02:14;101532.00;;;16.40
20289;BMP180;10303;51.960;8.372;2024-01-30T13:04:40;101517.00;;;16.40
20289;BMP180;10303;51.960;8.372;2024-01-30T13:07:07;101528.00;;;16.40
20289;BMP180;10303;51.960;8.372;2024-01-30T13:09:33;101533.00;;;16.40
20289;BMP180;10303;51.960;8.372;2024-01-30T13:11:59;101535.00;;;16.40
20289;BMP180;10303;51.960;8.372;2024-01-30T13:14:26;101533.00;;;16.40
20289;BMP180;10303;51.960;8.372;2024-01-30T13:16:52;101532.00;;;16.40
20289;BMP180;10303;51.960;8.372;2024-01-30T13:19:18;101539.00;;;16.40
20289;BMP180;10303;51.960;8.372;2024-01-30T13:21:44;101528.00;;;16.40
20289;BMP180;10303;51.960;8.372;2024-01-30T13:24:11;101524.00;;;16.40
20289;BMP180;10303;51.960;8.372;2024-01-30T13:26:37;101534.00;;;16.40
20289;BMP180;10303;51.960;8.372;2024-01-30T13:29:03;101539.00;;;16.30
20289;BMP180;10303;51.960;8.372;2024-01-30T13:31:30;101537.00;;;16.30
20289;BMP180;10303;51.960;8.372;2024-01-30T13:33:56;101533.00;;;16.30
20289;BMP180;10303;51.960;8.372;2024-01-30T13:36:22;101523.00;;;16.30
20289;BMP180;10303;51.960;8.372;2024-01-30T13:38:48;101530.00;;;16.20
20289;BMP180;10303;51.960;8.372;2024-01-30T13:41:14;101539.00;;;16.20
20289;BMP180;10303;51.960;8.372;2024-01-30T13:43:40;101536.00;;;16.20
20289;BMP180;10303;51.960;8.372;2024-01-30T13:46:06;101526.00;;;16.20
20289;BMP180;10303;51.960;8.372;2024-01-30T13:48:32;101525.00;;;16.20
20289;BMP180;10303;51.960;8.372;2024-01-30T13:50:58;101526.00;;;16.10
20289;BMP180;10303;51.960;8.372;2024-01-30T13:53:24;101535.00;;;16.10
20289;BMP180;10303;51.960;8.372;2024-01-30T13:55:50;101522.00;;;16.10
20289;BMP180;10303;51.960;8.372;2024-01-30T13:58:15;101516.00;;;16.10
20289;BMP180;10303;51.960;8.372;2024-01-30T14:00:41;101527.00;;;16.10
20289;BMP180;10303;51.960;8.372;2024-01-30T14:03:07;101525.00;;;16.10
20289;BMP180;10303;51.960;8.372;2024-01-30T14:05:33;101519.00;;;16.00
20289;BMP180;10303;51.960;8.372;2024-01-30T14:08:00;101535.00;;;16.00
20289;BMP180;10303;51.960;8.372;2024-01-30T14:10:26;101540.00;;;16.00
20289;BMP180;10303;51.960;8.372;2024-01-30T14:12:52;101543.00;;;15.90